sensor_id;sensor_type;location;lat;lon;timestamp;temperature;humidity
20481;DHT22;10399;50.754;3.366;2023-03-01T00:01:28;3.80;99.90
20481;DHT22;10399;50.754;3.366;2023-03-01T00:03:57;3.70;99.90
20481;DHT22;10399;50.754;3.366;2023-03-01T00:06:28;3.70;99.90
20481;DHT22;10399;50.754;3.366;2023-03-01T00:08:56;3.60;99.90
20481;DHT22;10399;50.754;3.366;2023-03-01T00:11:26;3.50;99.90
20481;DHT22;10399;50.754;3.366;2023-03-01T00:13:57;3.40;99.90
20481;DHT22;10399;50.754;3.366;2023-03-01T00:16:35;3.50;99.90
20481;DHT22;10399;50.754;3.366;2023-03-01T00:19:03;3.40;99.90
20481;DHT22;10399;50.754;3.366;2023-03-01T00:21:30;3.30;99.90
20481;DHT22;10399;50.754;3.366;2023-03-01T00:23:57;3.40;99.90
20481;DHT22;10399;50.754;3.366;2023-03-01T00:26:25;3.40;99.90
20481;DHT22;10399;50.754;3.366;2023-03-01T00:28:53;3.70;99.90
20481;DHT22;10399;50.754;3.366;2023-03-01T00:31:23;3.60;99.90
20481;DHT22;10399;50.754;3.366;2023-03-01T00:33:55;3.60;99.90
20481;DHT22;10399;50.754;3.366;2023-03-01T00:36:29;3.40;99.90
20481;DHT22;10399;50.754;3.366;2023-03-01T00:38:57;3.40;99.90
20481;DHT22;10399;50.754;3.366;2023-03-01T00:41:24;3.40;99.90
20481;DHT22;10399;50.754;3.366;2023-03-01T00:43:53;3.40;99.90
20481;DHT22;10399;50.754;3.366;2023-03-01T00:46:22;3.30;99.90
20481;DHT22;10399;50.754;3.366;2023-03-01T00:48:50;3.30;99.90
20481;DHT22;10399;50.754;3.366;2023-03-01T00:51:26;3.20;99.90
20481;DHT22;10399;50.754;3.366;2023-03-01T00:53:57;3.30;99.90
20481;DHT22;10399;50.754;3.366;2023-03-01T00:56:25;3.30;99.90
20481;DHT22;10399;50.754;3.366;2023-03-01T00:58:52;3.40;99.90
20481;DHT22;10399;50.754;3.366;2023-03-01T01:01:24;3.40;99.90
20481;DHT22;10399;50.754;3.366;2023-03-01T01:03:59;3.40;99.90
20481;DHT22;10399;50.754;3.366;2023-03-01T01:06:32;3.30;99.90
20481;DHT22;10399;50.754;3.366;2023-03-01T01:08:59;3.30;99.90
20481;DHT22;10399;50.754;3.366;2023-03-01T01:11:28;3.40;99.90
20481;DHT22;10399;50.754;3.366;2023-03-01T01:13:56;3.50;99.90
20481;DHT22;10399;50.754;3.366;2023-03-01T01:16:25;3.50;99.90
20481;DHT22;10399;50.754;3.366;2023-03-01T01:18:53;3.40;99.90
20481;DHT22;10399;50.754;3.366;2023-03-01T01:21:23;3.40;99.90
20481;DHT22;10399;50.754;3.366;2023-03-01T01:23:53;3.40;99.90
20481;DHT22;10399;50.754;3.366;2023-03-01T01:26:26;3.50;99.90
20481;DHT22;10399;50.754;3.366;2023-03-01T01:28:54;3.50;99.90
20481;DHT22;10399;50.754;3.366;2023-03-01T01:31:22;3.50;99.90
20481;DHT22;10399;50.754;3.366;2023-03-01T01:33:53;3.50;99.90
20481;DHT22;10399;50.754;3.366;2023-03-01T01:36:22;3.50;99.90
20481;DHT22;10399;50.754;3.366;2023-03-01T01:38:49;3.60;99.90
20481;DHT22;10399;50.754;3.366;2023-03-01T01:41:16;3.60;99.90
20481;DHT22;10399;50.754;3.366;2023-03-01T01:43:47;3.50;99.90
20481;DHT22;10399;50.754;3.366;2023-03-01T01:48:48;3.50;99.90
20481;DHT22;10399;50.754;3.366;2023-03-01T01:51:24;3.50;99.90
20481;DHT22;10399;50.754;3.366;2023-03-01T01:53:57;3.40;99.90
20481;DHT22;10399;50.754;3.366;2023-03-01T01:56:26;3.30;99.90
20481;DHT22;10399;50.754;3.366;2023-03-01T01:58:55;3.20;99.90
20481;DHT22;10399;50.754;3.366;2023-03-01T02:01:23;3.30;99.90
20481;DHT22;10399;50.754;3.366;2023-03-01T02:03:50;3.20;99.90
20481;DHT22;10399;50.754;3.366;2023-03-01T02:06:44;3.20;99.90
20481;DHT22;10399;50.754;3.366;2023-03-01T02:09:15;3.30;99.90
20481;DHT22;10399;50.754;3.366;2023-03-01T02:11:43;3.20;99.90
20481;DHT22;10399;50.754;3.366;2023-03-01T02:14:11;3.30;99.90
20481;DHT22;10399;50.754;3.366;2023-03-01T02:16:40;3.00;99.90
20481;DHT22;10399;50.754;3.366;2023-03-01T02:19:10;3.00;99.90
20481;DHT22;10399;50.754;3.366;2023-03-01T02:22:02;2.90;99.90
20481;DHT22;10399;50.754;3.366;2023-03-01T02:30:47;3.10;99.90
20481;DHT22;10399;50.754;3.366;2023-03-01T02:33:36;3.10;99.90
20481;DHT22;10399;50.754;3.366;2023-03-01T02:36:12;3.10;99.90
20481;DHT22;10399;50.754;3.366;2023-03-01T02:38:41;3.00;99.90
20481;DHT22;10399;50.754;3.366;2023-03-01T02:41:10;3.10;99.90
20481;DHT22;10399;50.754;3.366;2023-03-01T02:43:38;3.00;99.90
20481;DHT22;10399;50.754;3.366;2023-03-01T02:46:14;2.90;99.90
20481;DHT22;10399;50.754;3.366;2023-03-01T02:48:47;2.90;99.90
20481;DHT22;10399;50.754;3.366;2023-03-01T02:51:27;2.80;99.90
20481;DHT22;10399;50.754;3.366;2023-03-01T02:56:43;2.70;99.90
20481;DHT22;10399;50.754;3.366;2023-03-01T02:59:10;2.80;99.90
20481;DHT22;10399;50.754;3.366;2023-03-01T03:01:38;2.90;99.90
20481;DHT22;10399;50.754;3.366;2023-03-01T03:04:11;2.90;99.90
20481;DHT22;10399;50.754;3.366;2023-03-01T03:06:38;2.90;99.90
20481;DHT22;10399;50.754;3.366;2023-03-01T03:09:05;3.10;99.90
20481;DHT22;10399;50.754;3.366;2023-03-01T03:11:33;3.30;99.90
20481;DHT22;10399;50.754;3.366;2023-03-01T03:14:00;3.40;99.90
20481;DHT22;10399;50.754;3.366;2023-03-01T03:16:28;3.30;99.90
20481;DHT22;10399;50.754;3.366;2023-03-01T03:18:58;3.30;99.90
20481;DHT22;10399;50.754;3.366;2023-03-01T03:21:32;3.30;99.90
20481;DHT22;10399;50.754;3.366;2023-03-01T03:24:00;3.10;99.90
20481;DHT22;10399;50.754;3.366;2023-03-01T03:26:27;3.00;99.90
20481;DHT22;10399;50.754;3.366;2023-03-01T03:28:57;3.10;99.90
20481;DHT22;10399;50.754;3.366;2023-03-01T03:31:24;3.10;99.90
20481;DHT22;10399;50.754;3.366;2023-03-01T03:33:51;3.10;99.90
20481;DHT22;10399;50.754;3.366;2023-03-01T03:36:22;3.00;99.90
20481;DHT22;10399;50.754;3.366;2023-03-01T03:38:49;3.00;99.90
20481;DHT22;10399;50.754;3.366;2023-03-01T03:41:17;2.90;99.90
20481;DHT22;10399;50.754;3.366;2023-03-01T03:43:46;3.00;99.90
20481;DHT22;10399;50.754;3.366;2023-03-01T03:46:14;3.00;99.90
20481;DHT22;10399;50.754;3.366;2023-03-01T03:48:43;2.80;99.90
20481;DHT22;10399;50.754;3.366;2023-03-01T03:51:14;2.60;99.90
20481;DHT22;10399;50.754;3.366;2023-03-01T03:53:44;2.60;99.90
20481;DHT22;10399;50.754;3.366;2023-03-01T03:56:14;2.70;99.90
20481;DHT22;10399;50.754;3.366;2023-03-01T03:58:42;2.60;99.90
20481;DHT22;10399;50.754;3.366;2023-03-01T04:01:09;2.60;99.90
20481;DHT22;10399;50.754;3.366;2023-03-01T04:03:36;2.70;99.90
20481;DHT22;10399;50.754;3.366;2023-03-01T04:06:03;2.80;99.90
20481;DHT22;10399;50.754;3.366;2023-03-01T04:08:31;2.80;99.90
20481;DHT22;10399;50.754;3.366;2023-03-01T04:11:03;2.70;99.90
20481;DHT22;10399;50.754;3.366;2023-03-01T04:13:55;2.80;99.90
20481;DHT22;10399;50.754;3.366;2023-03-01T04:16:24;2.80;99.90
20481;DHT22;10399;50.754;3.366;2023-03-01T04:18:53;2.90;99.90
20481;DHT22;10399;50.754;3.366;2023-03-01T04:21:21;2.70;99.90
20481;DHT22;10399;50.754;3.366;2023-03-01T04:23:48;2.70;99.90
20481;DHT22;10399;50.754;3.366;2023-03-01T04:26:20;2.50;99.90
20481;DHT22;10399;50.754;3.366;2023-03-01T04:28:47;2.50;99.90
20481;DHT22;10399;50.754;3.366;2023-03-01T04:31:17;2.60;99.90
20481;DHT22;10399;50.754;3.366;2023-03-01T04:33:51;2.60;99.90
20481;DHT22;10399;50.754;3.366;2023-03-01T04:36:20;2.40;99.90
20481;DHT22;10399;50.754;3.366;2023-03-01T04:38:48;2.50;99.90
20481;DHT22;10399;50.754;3.366;2023-03-01T04:41:17;2.60;99.90
20481;DHT22;10399;50.754;3.366;2023-03-01T04:43:45;2.60;99.90
20481;DHT22;10399;50.754;3.366;2023-03-01T04:46:15;2.50;99.90
20481;DHT22;10399;50.754;3.366;2023-03-01T04:48:43;2.40;99.90
20481;DHT22;10399;50.754;3.366;2023-03-01T04:51:12;2.40;99.90
20481;DHT22;10399;50.754;3.366;2023-03-01T04:53:41;2.60;99.90
20481;DHT22;10399;50.754;3.366;2023-03-01T04:56:09;2.60;99.90
20481;DHT22;10399;50.754;3.366;2023-03-01T04:58:38;2.60;99.90
20481;DHT22;10399;50.754;3.366;2023-03-01T05:01:13;2.60;99.90
20481;DHT22;10399;50.754;3.366;2023-03-01T05:03:44;2.40;99.90
20481;DHT22;10399;50.754;3.366;2023-03-01T05:06:12;2.40;99.90
20481;DHT22;10399;50.754;3.366;2023-03-01T05:08:39;2.40;99.90
20481;DHT22;10399;50.754;3.366;2023-03-01T05:11:09;2.50;99.90
20481;DHT22;10399;50.754;3.366;2023-03-01T05:13:38;2.40;99.90
20481;DHT22;10399;50.754;3.366;2023-03-01T05:16:06;2.30;99.90
20481;DHT22;10399;50.754;3.366;2023-03-01T05:18:41;2.20;99.90
20481;DHT22;10399;50.754;3.366;2023-03-01T05:21:13;2.20;99.90
20481;DHT22;10399;50.754;3.366;2023-03-01T05:23:44;2.30;99.90
20481;DHT22;10399;50.754;3.366;2023-03-01T05:26:12;2.30;99.90
20481;DHT22;10399;50.754;3.366;2023-03-01T05:28:54;2.20;99.90
20481;DHT22;10399;50.754;3.366;2023-03-01T05:31:26;2.10;99.90
20481;DHT22;10399;50.754;3.366;2023-03-01T05:33:53;2.10;99.90
20481;DHT22;10399;50.754;3.366;2023-03-01T05:36:20;2.20;99.90
20481;DHT22;10399;50.754;3.366;2023-03-01T05:38:48;2.10;99.90
20481;DHT22;10399;50.754;3.366;2023-03-01T05:41:15;2.10;99.90
20481;DHT22;10399;50.754;3.366;2023-03-01T05:43:43;2.20;99.90
20481;DHT22;10399;50.754;3.366;2023-03-01T05:46:12;2.00;99.90
20481;DHT22;10399;50.754;3.366;2023-03-01T05:48:40;2.00;99.90
20481;DHT22;10399;50.754;3.366;2023-03-01T05:51:08;2.00;99.90
20481;DHT22;10399;50.754;3.366;2023-03-01T05:53:36;2.00;99.90
20481;DHT22;10399;50.754;3.366;2023-03-01T05:56:04;2.00;99.90
20481;DHT22;10399;50.754;3.366;2023-03-01T05:58:31;2.00;99.90
20481;DHT22;10399;50.754;3.366;2023-03-01T06:00:58;1.90;99.90
20481;DHT22;10399;50.754;3.366;2023-03-01T06:03:25;1.90;99.90
20481;DHT22;10399;50.754;3.366;2023-03-01T06:05:56;2.00;99.90
20481;DHT22;10399;50.754;3.366;2023-03-01T06:08:23;1.90;99.90
20481;DHT22;10399;50.754;3.366;2023-03-01T06:10:54;1.90;99.90
20481;DHT22;10399;50.754;3.366;2023-03-01T06:13:22;2.00;99.90
20481;DHT22;10399;50.754;3.366;2023-03-01T06:15:52;2.10;99.90
20481;DHT22;10399;50.754;3.366;2023-03-01T06:18:19;2.20;99.90
20481;DHT22;10399;50.754;3.366;2023-03-01T06:20:57;2.20;99.90
20481;DHT22;10399;50.754;3.366;2023-03-01T06:23:24;2.10;99.90
20481;DHT22;10399;50.754;3.366;2023-03-01T06:25:52;2.10;99.90
20481;DHT22;10399;50.754;3.366;2023-03-01T06:28:19;2.10;99.90
20481;DHT22;10399;50.754;3.366;2023-03-01T06:30:48;2.20;99.90
20481;DHT22;10399;50.754;3.366;2023-03-01T06:33:16;2.20;99.90
20481;DHT22;10399;50.754;3.366;2023-03-01T06:35:43;2.30;99.90
20481;DHT22;10399;50.754;3.366;2023-03-01T06:38:10;2.30;99.90
20481;DHT22;10399;50.754;3.366;2023-03-01T06:40:37;2.30;99.90
20481;DHT22;10399;50.754;3.366;2023-03-01T06:43:04;2.30;99.90
20481;DHT22;10399;50.754;3.366;2023-03-01T06:45:32;2.30;99.90
20481;DHT22;10399;50.754;3.366;2023-03-01T06:48:06;2.20;99.90
20481;DHT22;10399;50.754;3.366;2023-03-01T06:50:35;2.30;99.90
20481;DHT22;10399;50.754;3.366;2023-03-01T06:53:04;2.40;99.90
20481;DHT22;10399;50.754;3.366;2023-03-01T06:55:31;2.30;99.90
20481;DHT22;10399;50.754;3.366;2023-03-01T06:58:00;2.20;99.90
20481;DHT22;10399;50.754;3.366;2023-03-01T07:00:28;2.30;99.90
20481;DHT22;10399;50.754;3.366;2023-03-01T07:02:58;2.20;99.90
20481;DHT22;10399;50.754;3.366;2023-03-01T07:05:25;2.30;99.90
20481;DHT22;10399;50.754;3.366;2023-03-01T07:07:53;2.30;99.90
20481;DHT22;10399;50.754;3.366;2023-03-01T07:10:24;2.30;99.90
20481;DHT22;10399;50.754;3.366;2023-03-01T07:12:57;2.30;99.90
20481;DHT22;10399;50.754;3.366;2023-03-01T07:15:26;2.40;99.90
20481;DHT22;10399;50.754;3.366;2023-03-01T07:17:56;2.30;99.90
20481;DHT22;10399;50.754;3.366;2023-03-01T07:20:23;2.40;99.90
20481;DHT22;10399;50.754;3.366;2023-03-01T07:22:54;2.40;99.90
20481;DHT22;10399;50.754;3.366;2023-03-01T07:25:23;2.40;99.90
20481;DHT22;10399;50.754;3.366;2023-03-01T07:27:53;2.50;99.90
20481;DHT22;10399;50.754;3.366;2023-03-01T07:30:21;2.50;99.90
20481;DHT22;10399;50.754;3.366;2023-03-01T07:32:49;2.60;99.90
20481;DHT22;10399;50.754;3.366;2023-03-01T07:35:16;2.80;99.90
20481;DHT22;10399;50.754;3.366;2023-03-01T07:37:43;2.90;99.90
20481;DHT22;10399;50.754;3.366;2023-03-01T07:40:11;3.10;99.90
20481;DHT22;10399;50.754;3.366;2023-03-01T07:42:38;3.20;99.90
20481;DHT22;10399;50.754;3.366;2023-03-01T07:45:06;3.40;99.90
20481;DHT22;10399;50.754;3.366;2023-03-01T07:47:33;3.50;99.90
20481;DHT22;10399;50.754;3.366;2023-03-01T07:50:00;3.50;99.90
20481;DHT22;10399;50.754;3.366;2023-03-01T07:52:28;3.50;99.90
20481;DHT22;10399;50.754;3.366;2023-03-01T07:54:56;3.50;99.90
20481;DHT22;10399;50.754;3.366;2023-03-01T07:57:23;3.60;99.90
20481;DHT22;10399;50.754;3.366;2023-03-01T07:59:52;3.80;99.90
20481;DHT22;10399;50.754;3.366;2023-03-01T08:02:22;3.90;99.90
20481;DHT22;10399;50.754;3.366;2023-03-01T08:04:49;4.00;99.90
20481;DHT22;10399;50.754;3.366;2023-03-01T08:07:16;4.00;99.90
20481;DHT22;10399;50.754;3.366;2023-03-01T08:09:43;4.10;99.90
20481;DHT22;10399;50.754;3.366;2023-03-01T08:12:11;4.10;99.90
20481;DHT22;10399;50.754;3.366;2023-03-01T08:14:38;4.30;99.90
20481;DHT22;10399;50.754;3.366;2023-03-01T08:17:05;4.30;99.90
20481;DHT22;10399;50.754;3.366;2023-03-01T08:19:32;4.30;99.90
20481;DHT22;10399;50.754;3.366;2023-03-01T08:22:01;4.50;99.90
20481;DHT22;10399;50.754;3.366;2023-03-01T08:24:28;4.50;99.90
20481;DHT22;10399;50.754;3.366;2023-03-01T08:26:55;4.50;99.90
20481;DHT22;10399;50.754;3.366;2023-03-01T08:29:23;4.60;99.90
20481;DHT22;10399;50.754;3.366;2023-03-01T08:31:51;4.90;99.90
20481;DHT22;10399;50.754;3.366;2023-03-01T09:00:51;6.40;99.90
20481;DHT22;10399;50.754;3.366;2023-03-01T09:03:19;6.60;99.90
20481;DHT22;10399;50.754;3.366;2023-03-01T09:05:46;6.70;99.90
20481;DHT22;10399;50.754;3.366;2023-03-01T09:08:22;6.60;99.90
20481;DHT22;10399;50.754;3.366;2023-03-01T09:10:50;6.90;99.90
20481;DHT22;10399;50.754;3.366;2023-03-01T09:13:17;7.00;99.90
20481;DHT22;10399;50.754;3.366;2023-03-01T09:15:47;7.10;99.90
20481;DHT22;10399;50.754;3.366;2023-03-01T09:18:14;7.20;99.90
20481;DHT22;10399;50.754;3.366;2023-03-01T09:20:42;7.50;99.90
20481;DHT22;10399;50.754;3.366;2023-03-01T09:23:09;7.50;99.90
20481;DHT22;10399;50.754;3.366;2023-03-01T09:25:38;7.60;99.90
20481;DHT22;10399;50.754;3.366;2023-03-01T09:28:06;7.80;99.90
20481;DHT22;10399;50.754;3.366;2023-03-01T09:30:38;7.70;99.90
20481;DHT22;10399;50.754;3.366;2023-03-01T09:33:09;7.90;99.90
20481;DHT22;10399;50.754;3.366;2023-03-01T09:35:41;8.00;99.90
20481;DHT22;10399;50.754;3.366;2023-03-01T09:38:13;8.20;99.90
20481;DHT22;10399;50.754;3.366;2023-03-01T09:40:44;8.30;99.90
20481;DHT22;10399;50.754;3.366;2023-03-01T09:43:41;8.40;99.90
20481;DHT22;10399;50.754;3.366;2023-03-01T09:46:14;8.60;99.90
20481;DHT22;10399;50.754;3.366;2023-03-01T09:48:57;8.70;99.90
20481;DHT22;10399;50.754;3.366;2023-03-01T09:51:32;8.80;99.90
20481;DHT22;10399;50.754;3.366;2023-03-01T09:54:02;9.10;99.90
20481;DHT22;10399;50.754;3.366;2023-03-01T10:08:36;9.30;99.90
